Weather History for Mississippi Canyon, LA

Change the Weather History Date:

Sunday, March 30, 2014

  Actual Average Record
Temperature  
Mean Temperature 62 °F -  
Max Temperature 66 °F - - ()
Min Temperature 59 °F - - ()
Degree Days  
Heating Degree Days 2    
Growing Degree Days 12 (Base 50)    
Moisture  
Dew Point 45 °F    
Average Humidity 55    
Maximum Humidity 68    
Minimum Humidity 40    
Precipitation  
Precipitation 0.00 in - - ()
Sea Level Pressure  
Sea Level Pressure 30.23 in    
Wind  
Wind Speed 22 mph (NE)    
Max Wind Speed 34 mph    
Max Gust Speed 39 mph    
Visibility 10 miles    
Events      
T = Trace of Precipitation, MM = Missing Value Source: NWS Daily Summary

Daily Weather History Graph

Daily Weather History Graph

Search for Another Location

Airport:

Trip Planner

Search our weather history database for the weather conditions in past years. The results will help you decide how hot, cold, wet, or windy it might be!

Date:

Astronomy

Mar. 30, 2014 Rise Set
Actual Time 6:51 AM CDT 7:16 PM CDT
Civil Twilight 6:27 AM CDT 7:39 PM CDT
Nautical Twilight 6:00 AM CDT 8:07 PM CDT
Astronomical Twilight 5:31 AM CDT 8:35 PM CDT
Moon 6:37 AM CDT (3/30) 7:26 PM CDT (3/30)
Length of Visible Light 13h 12m
Length of Day
12h 24m
Waning Crescent, 0% of the Moon is Illuminated
Mar 30
Waning Crescent
Mar 30
New
Apr 7
First Quarter
Apr 15
Full
Apr 22
Last Quarter

Hourly Weather History & Observations

Time (CDT) Temp. Dew Point Humidity Pressure Visibility Wind Dir Wind Speed Gust Speed Precip Events Conditions
12:15 AM 66.2 °F 46.4 °F 49% 30.19 in 10.0 mi North 31.1 mph - N/A   Clear
12:35 AM 66.2 °F 44.6 °F 46% 30.19 in 10.0 mi North 33.4 mph - N/A   Clear
12:55 AM 66.2 °F 42.8 °F 43% 30.18 in 10.0 mi North 32.2 mph 39.1 mph N/A   Clear
1:15 AM 64.4 °F 42.8 °F 45% 30.19 in 10.0 mi North 34.5 mph - N/A   Clear
1:35 AM 64.4 °F 42.8 °F 45% 30.19 in 10.0 mi North 31.1 mph - N/A   Clear
1:55 AM 64.4 °F 44.6 °F 49% 30.20 in 10.0 mi North 29.9 mph - N/A   Clear
2:15 AM 62.6 °F 48.2 °F 59% 30.20 in 10.0 mi North 27.6 mph - N/A   Clear
2:35 AM 62.6 °F 46.4 °F 55% 30.20 in 10.0 mi North 31.1 mph - N/A   Clear
2:55 AM 62.6 °F 48.2 °F 59% 30.19 in 10.0 mi NNE 27.6 mph - N/A   Clear
3:15 AM 60.8 °F 46.4 °F 59% 30.19 in 10.0 mi NNE 28.8 mph - N/A   Clear
3:35 AM 60.8 °F 46.4 °F 59% 30.19 in 10.0 mi NNE 26.5 mph - N/A   Clear
3:55 AM 60.8 °F 48.2 °F 63% 30.20 in 10.0 mi NNE 24.2 mph - N/A   Clear
4:15 AM 60.8 °F 50.0 °F 68% 30.20 in 10.0 mi NNE 25.3 mph - N/A   Clear
4:35 AM 60.8 °F 48.2 °F 63% 30.20 in 10.0 mi NNE 24.2 mph - N/A   Clear
4:55 AM 60.8 °F 48.2 °F 63% 30.20 in 10.0 mi NNE 25.3 mph - N/A   Clear
5:15 AM 60.8 °F 48.2 °F 63% 30.21 in 10.0 mi NNE 23.0 mph - N/A   Clear
5:35 AM 59.0 °F 48.2 °F 67% 30.21 in 10.0 mi NNE 24.2 mph - N/A   Clear
5:55 AM 60.8 °F 48.2 °F 63% 30.22 in 10.0 mi NNE 24.2 mph - N/A   Clear
6:15 AM 59.0 °F 48.2 °F 67% 30.22 in 10.0 mi NE 21.9 mph - N/A   Clear
6:35 AM 59.0 °F 44.6 °F 59% 30.23 in 10.0 mi NNE 24.2 mph - N/A   Clear
6:55 AM 59.0 °F 44.6 °F 59% 30.24 in 10.0 mi NE 23.0 mph - N/A   Clear
7:15 AM 59.0 °F 44.6 °F 59% 30.25 in 10.0 mi NE 21.9 mph - N/A   Clear
7:35 AM 59.0 °F 44.6 °F 59% 30.26 in 10.0 mi NNE 24.2 mph - N/A   Clear
7:55 AM 59.0 °F 46.4 °F 63% 30.27 in 10.0 mi NNE 21.9 mph - N/A   Clear
8:15 AM 59.0 °F 44.6 °F 59% 30.28 in 10.0 mi NE 24.2 mph - N/A   Clear
8:35 AM 59.0 °F 44.6 °F 59% 30.29 in 10.0 mi NE 23.0 mph - N/A   Clear
8:55 AM 59.0 °F 46.4 °F 63% 30.29 in 10.0 mi NE 21.9 mph - N/A   Clear
9:15 AM 59.0 °F 46.4 °F 63% 30.30 in 10.0 mi NE 21.9 mph - N/A   Clear
9:35 AM 59.0 °F 46.4 °F 63% 30.29 in 10.0 mi NNE 21.9 mph - N/A   Clear
9:55 AM 59.0 °F 46.4 °F 63% 30.30 in 10.0 mi NE 23.0 mph - N/A   Clear
10:15 AM 59.0 °F 44.6 °F 59% 30.31 in 10.0 mi NE 20.7 mph - N/A   Clear
10:35 AM 59.0 °F 46.4 °F 63% 30.31 in 10.0 mi NNE 19.6 mph - N/A   Clear
10:55 AM 59.0 °F 44.6 °F 59% 30.32 in 10.0 mi NE 17.3 mph - N/A   Clear
11:15 AM 59.0 °F 44.6 °F 59% 30.31 in 10.0 mi NNE 16.1 mph - N/A   Clear
11:35 AM 59.0 °F 44.6 °F 59% 30.31 in 10.0 mi NE 17.3 mph - N/A   Clear
11:55 AM 59.0 °F 44.6 °F 59% 30.30 in 10.0 mi NNE 17.3 mph - N/A   Clear
12:15 PM 59.0 °F 42.8 °F 55% 30.30 in 10.0 mi NNE 15.0 mph - N/A   Clear
12:35 PM 59.0 °F 42.8 °F 55% 30.30 in 10.0 mi NE 15.0 mph - N/A   Clear
12:55 PM 60.8 °F 42.8 °F 52% 30.29 in 10.0 mi NE 12.7 mph - N/A   Clear
1:15 PM 60.8 °F 42.8 °F 52% 30.28 in 10.0 mi NE 13.8 mph - N/A   Clear
1:35 PM 60.8 °F 44.6 °F 55% 30.27 in 10.0 mi NE 12.7 mph - N/A   Clear
1:55 PM 60.8 °F 44.6 °F 55% 30.27 in 10.0 mi NE 9.2 mph - N/A   Clear
2:15 PM 60.8 °F 44.6 °F 55% 30.26 in 10.0 mi NE 11.5 mph - N/A   Clear
2:35 PM 60.8 °F 44.6 °F 55% 30.25 in 10.0 mi NE 11.5 mph - N/A   Clear
2:55 PM 60.8 °F 44.6 °F 55% 30.23 in 10.0 mi NE 11.5 mph - N/A   Clear
3:15 PM 60.8 °F 42.8 °F 52% 30.23 in 10.0 mi ENE 10.4 mph - N/A   Clear
3:35 PM 60.8 °F 42.8 °F 52% 30.22 in 10.0 mi ENE 10.4 mph - N/A   Clear
3:55 PM 60.8 °F 42.8 °F 52% 30.22 in 10.0 mi ENE 9.2 mph - N/A   Clear
4:15 PM 60.8 °F 42.8 °F 52% 30.22 in 10.0 mi ENE 6.9 mph - N/A   Clear
4:35 PM 60.8 °F 42.8 °F 52% 30.21 in 10.0 mi NE 5.8 mph - N/A   Clear
4:55 PM 60.8 °F 42.8 °F 52% 30.21 in 10.0 mi NE 5.8 mph - N/A   Clear
5:15 PM 60.8 °F 42.8 °F 52% 30.20 in 10.0 mi NE 5.8 mph - N/A   Clear
5:35 PM 60.8 °F 42.8 °F 52% 30.20 in 10.0 mi NE 6.9 mph - N/A   Clear
5:55 PM 60.8 °F 41.0 °F 48% 30.19 in 10.0 mi ENE 6.9 mph - N/A   Clear
6:15 PM 60.8 °F 42.8 °F 52% 30.19 in 10.0 mi NE 8.1 mph - N/A   Clear
6:35 PM 60.8 °F 42.8 °F 52% 30.19 in 10.0 mi ENE 8.1 mph - N/A   Clear
6:55 PM 60.8 °F 42.8 °F 52% 30.19 in 10.0 mi ENE 6.9 mph - N/A   Clear
7:15 PM 60.8 °F 42.8 °F 52% 30.19 in 10.0 mi NE 9.2 mph - N/A   Clear
7:35 PM 60.8 °F 44.6 °F 55% 30.19 in 10.0 mi NE 9.2 mph - N/A   Clear
7:55 PM 60.8 °F 44.6 °F 55% 30.19 in 10.0 mi NE 8.1 mph - N/A   Clear
8:15 PM 60.8 °F 44.6 °F 55% 30.19 in 10.0 mi NE 8.1 mph - N/A   Clear
8:35 PM 60.8 °F 44.6 °F 55% 30.20 in 10.0 mi ENE 8.1 mph - N/A   Clear
8:55 PM 60.8 °F 44.6 °F 55% 30.20 in 10.0 mi NE 9.2 mph - N/A   Clear
9:15 PM 60.8 °F 44.6 °F 55% 30.20 in 10.0 mi ENE 9.2 mph - N/A   Clear
9:35 PM 60.8 °F 42.8 °F 52% 30.20 in 10.0 mi ENE 10.4 mph - N/A   Clear
9:55 PM 60.8 °F 44.6 °F 55% 30.19 in 10.0 mi ENE 11.5 mph - N/A   Clear
10:15 PM 60.8 °F 46.4 °F 59% 30.19 in 10.0 mi ENE 11.5 mph - N/A   Clear
10:35 PM 60.8 °F 42.8 °F 52% 30.20 in 10.0 mi East 9.2 mph - N/A   Clear
10:55 PM 62.6 °F 39.2 °F 42% 30.20 in 10.0 mi ESE 9.2 mph - N/A   Clear
11:15 PM 64.4 °F 39.2 °F 40% 30.19 in - ESE 12.7 mph - N/A   Clear
11:35 PM 64.4 °F 41.0 °F 42% 30.19 in 10.0 mi ESE 11.5 mph - N/A   Clear
11:55 PM 64.4 °F 42.8 °F 45% 30.19 in 10.0 mi ESE 10.4 mph - N/A   Clear